sensor_id;sensor_type;location;lat;lon;timestamp;temperature;humidity
15133;DHT22;7667;51.232;17.110;2023-11-21T00:00:16;7.60;99.90
15133;DHT22;7667;51.232;17.110;2023-11-21T00:02:44;7.60;99.90
15133;DHT22;7667;51.232;17.110;2023-11-21T00:05:16;7.60;99.90
15133;DHT22;7667;51.232;17.110;2023-11-21T00:07:43;7.60;99.90
15133;DHT22;7667;51.232;17.110;2023-11-21T00:10:12;7.60;99.90
15133;DHT22;7667;51.232;17.110;2023-11-21T00:12:42;7.60;99.90
15133;DHT22;7667;51.232;17.110;2023-11-21T00:15:10;7.60;99.90
15133;DHT22;7667;51.232;17.110;2023-11-21T00:17:41;7.60;99.90
15133;DHT22;7667;51.232;17.110;2023-11-21T00:20:10;7.60;99.90
15133;DHT22;7667;51.232;17.110;2023-11-21T00:22:40;7.60;99.90
15133;DHT22;7667;51.232;17.110;2023-11-21T00:25:09;7.60;99.90
15133;DHT22;7667;51.232;17.110;2023-11-21T00:27:37;7.60;99.90
15133;DHT22;7667;51.232;17.110;2023-11-21T00:30:05;7.60;99.90
15133;DHT22;7667;51.232;17.110;2023-11-21T00:32:35;7.50;99.90
15133;DHT22;7667;51.232;17.110;2023-11-21T00:35:03;7.60;99.90
15133;DHT22;7667;51.232;17.110;2023-11-21T00:37:31;7.50;99.90
15133;DHT22;7667;51.232;17.110;2023-11-21T00:39:59;7.50;99.90
15133;DHT22;7667;51.232;17.110;2023-11-21T00:42:27;7.50;99.90
15133;DHT22;7667;51.232;17.110;2023-11-21T00:44:54;7.50;99.90
15133;DHT22;7667;51.232;17.110;2023-11-21T00:47:22;7.50;99.90
15133;DHT22;7667;51.232;17.110;2023-11-21T00:49:50;7.50;99.90
15133;DHT22;7667;51.232;17.110;2023-11-21T00:52:17;7.50;99.90
15133;DHT22;7667;51.232;17.110;2023-11-21T00:54:45;7.50;99.90
15133;DHT22;7667;51.232;17.110;2023-11-21T00:57:13;7.50;99.90
15133;DHT22;7667;51.232;17.110;2023-11-21T00:59:41;7.50;99.90
15133;DHT22;7667;51.232;17.110;2023-11-21T01:02:08;7.50;99.90
15133;DHT22;7667;51.232;17.110;2023-11-21T01:04:37;7.50;99.90
15133;DHT22;7667;51.232;17.110;2023-11-21T01:07:05;7.50;99.90
15133;DHT22;7667;51.232;17.110;2023-11-21T01:09:33;7.50;99.90
15133;DHT22;7667;51.232;17.110;2023-11-21T01:12:02;7.40;99.90
15133;DHT22;7667;51.232;17.110;2023-11-21T01:14:30;7.40;99.90
15133;DHT22;7667;51.232;17.110;2023-11-21T01:16:57;7.40;99.90
15133;DHT22;7667;51.232;17.110;2023-11-21T01:19:25;7.40;99.90
15133;DHT22;7667;51.232;17.110;2023-11-21T01:21:53;7.40;99.90
15133;DHT22;7667;51.232;17.110;2023-11-21T01:24:20;7.40;99.90
15133;DHT22;7667;51.232;17.110;2023-11-21T01:26:48;7.40;99.90
15133;DHT22;7667;51.232;17.110;2023-11-21T01:29:15;7.40;99.90
15133;DHT22;7667;51.232;17.110;2023-11-21T01:31:43;7.30;99.90
15133;DHT22;7667;51.232;17.110;2023-11-21T01:34:10;7.30;99.90
15133;DHT22;7667;51.232;17.110;2023-11-21T01:36:38;7.30;99.90
15133;DHT22;7667;51.232;17.110;2023-11-21T01:39:06;7.30;99.90
15133;DHT22;7667;51.232;17.110;2023-11-21T01:41:38;7.30;99.90
15133;DHT22;7667;51.232;17.110;2023-11-21T01:44:05;7.30;99.90
15133;DHT22;7667;51.232;17.110;2023-11-21T01:46:36;7.30;99.90
15133;DHT22;7667;51.232;17.110;2023-11-21T01:49:05;7.30;99.90
15133;DHT22;7667;51.232;17.110;2023-11-21T01:51:32;7.30;99.90
15133;DHT22;7667;51.232;17.110;2023-11-21T01:54:01;7.30;99.90
15133;DHT22;7667;51.232;17.110;2023-11-21T01:56:47;7.30;99.90
15133;DHT22;7667;51.232;17.110;2023-11-21T01:59:18;7.30;99.90
15133;DHT22;7667;51.232;17.110;2023-11-21T02:01:50;7.20;99.90
15133;DHT22;7667;51.232;17.110;2023-11-21T02:04:18;7.30;99.90
15133;DHT22;7667;51.232;17.110;2023-11-21T02:06:47;7.20;99.90
15133;DHT22;7667;51.232;17.110;2023-11-21T02:09:15;7.20;99.90
15133;DHT22;7667;51.232;17.110;2023-11-21T02:11:42;7.20;99.90
15133;DHT22;7667;51.232;17.110;2023-11-21T02:14:11;7.20;99.90
15133;DHT22;7667;51.232;17.110;2023-11-21T02:16:41;7.20;99.90
15133;DHT22;7667;51.232;17.110;2023-11-21T02:19:10;7.10;99.90
15133;DHT22;7667;51.232;17.110;2023-11-21T02:21:38;7.20;99.90
15133;DHT22;7667;51.232;17.110;2023-11-21T02:24:08;7.20;99.90
15133;DHT22;7667;51.232;17.110;2023-11-21T02:26:35;7.10;99.90
15133;DHT22;7667;51.232;17.110;2023-11-21T02:29:03;7.10;99.90
15133;DHT22;7667;51.232;17.110;2023-11-21T02:31:31;7.10;99.90
15133;DHT22;7667;51.232;17.110;2023-11-21T02:34:00;7.10;99.90
15133;DHT22;7667;51.232;17.110;2023-11-21T02:36:28;7.10;99.90
15133;DHT22;7667;51.232;17.110;2023-11-21T02:38:55;7.10;99.90
15133;DHT22;7667;51.232;17.110;2023-11-21T02:41:23;7.10;99.90
15133;DHT22;7667;51.232;17.110;2023-11-21T02:43:50;7.10;99.90
15133;DHT22;7667;51.232;17.110;2023-11-21T02:46:18;7.10;99.90
15133;DHT22;7667;51.232;17.110;2023-11-21T02:48:46;7.10;99.90
15133;DHT22;7667;51.232;17.110;2023-11-21T02:51:13;7.10;99.90
15133;DHT22;7667;51.232;17.110;2023-11-21T02:53:42;7.10;99.90
15133;DHT22;7667;51.232;17.110;2023-11-21T02:56:10;7.10;99.90
15133;DHT22;7667;51.232;17.110;2023-11-21T02:58:40;7.10;99.90
15133;DHT22;7667;51.232;17.110;2023-11-21T03:01:09;7.20;99.90
15133;DHT22;7667;51.232;17.110;2023-11-21T03:03:39;7.10;99.90
15133;DHT22;7667;51.232;17.110;2023-11-21T03:06:07;7.10;99.90
15133;DHT22;7667;51.232;17.110;2023-11-21T03:08:35;7.10;99.90
15133;DHT22;7667;51.232;17.110;2023-11-21T03:11:03;7.10;99.90
15133;DHT22;7667;51.232;17.110;2023-11-21T03:13:30;7.10;99.90
15133;DHT22;7667;51.232;17.110;2023-11-21T03:15:58;7.10;99.90
15133;DHT22;7667;51.232;17.110;2023-11-21T03:18:26;7.10;99.90
15133;DHT22;7667;51.232;17.110;2023-11-21T03:20:53;7.10;99.90
15133;DHT22;7667;51.232;17.110;2023-11-21T03:23:21;7.10;99.90
15133;DHT22;7667;51.232;17.110;2023-11-21T03:25:48;7.10;99.90
15133;DHT22;7667;51.232;17.110;2023-11-21T03:28:16;7.10;99.90
15133;DHT22;7667;51.232;17.110;2023-11-21T03:30:44;7.10;99.90
15133;DHT22;7667;51.232;17.110;2023-11-21T03:33:11;7.10;99.90
15133;DHT22;7667;51.232;17.110;2023-11-21T03:35:39;7.10;99.90
15133;DHT22;7667;51.232;17.110;2023-11-21T03:38:10;7.10;99.90
15133;DHT22;7667;51.232;17.110;2023-11-21T03:40:37;7.10;99.90
15133;DHT22;7667;51.232;17.110;2023-11-21T03:43:06;7.10;99.90
15133;DHT22;7667;51.232;17.110;2023-11-21T03:45:34;7.10;99.90
15133;DHT22;7667;51.232;17.110;2023-11-21T03:48:02;7.20;99.90
15133;DHT22;7667;51.232;17.110;2023-11-21T03:50:29;7.20;99.90
15133;DHT22;7667;51.232;17.110;2023-11-21T03:52:57;7.20;99.90
15133;DHT22;7667;51.232;17.110;2023-11-21T03:55:25;7.20;99.90
15133;DHT22;7667;51.232;17.110;2023-11-21T03:57:52;7.20;99.90
15133;DHT22;7667;51.232;17.110;2023-11-21T04:00:20;7.10;99.90
15133;DHT22;7667;51.232;17.110;2023-11-21T04:02:48;7.20;99.90
15133;DHT22;7667;51.232;17.110;2023-11-21T04:05:15;7.20;99.90
15133;DHT22;7667;51.232;17.110;2023-11-21T04:07:43;7.20;99.90
15133;DHT22;7667;51.232;17.110;2023-11-21T04:10:11;7.20;99.90
15133;DHT22;7667;51.232;17.110;2023-11-21T04:12:40;7.20;99.90
15133;DHT22;7667;51.232;17.110;2023-11-21T04:15:08;7.20;99.90
15133;DHT22;7667;51.232;17.110;2023-11-21T04:17:36;7.20;99.90
15133;DHT22;7667;51.232;17.110;2023-11-21T04:20:05;7.20;99.90
15133;DHT22;7667;51.232;17.110;2023-11-21T04:22:39;7.20;99.90
15133;DHT22;7667;51.232;17.110;2023-11-21T04:25:13;7.20;99.90
15133;DHT22;7667;51.232;17.110;2023-11-21T04:27:44;7.20;99.90
15133;DHT22;7667;51.232;17.110;2023-11-21T04:30:13;7.20;99.90
15133;DHT22;7667;51.232;17.110;2023-11-21T04:32:41;7.20;99.90
15133;DHT22;7667;51.232;17.110;2023-11-21T04:35:09;7.20;99.90
15133;DHT22;7667;51.232;17.110;2023-11-21T04:37:37;7.20;99.90
15133;DHT22;7667;51.232;17.110;2023-11-21T04:40:05;7.20;99.90
15133;DHT22;7667;51.232;17.110;2023-11-21T04:42:37;7.20;99.90
15133;DHT22;7667;51.232;17.110;2023-11-21T04:45:05;7.30;99.90
15133;DHT22;7667;51.232;17.110;2023-11-21T04:47:37;7.20;99.90
15133;DHT22;7667;51.232;17.110;2023-11-21T04:50:05;7.20;99.90
15133;DHT22;7667;51.232;17.110;2023-11-21T04:52:33;7.20;99.90
15133;DHT22;7667;51.232;17.110;2023-11-21T04:55:01;7.20;99.90
15133;DHT22;7667;51.232;17.110;2023-11-21T04:57:29;7.20;99.90
15133;DHT22;7667;51.232;17.110;2023-11-21T04:59:58;7.20;99.90
15133;DHT22;7667;51.232;17.110;2023-11-21T05:02:25;7.20;99.90
15133;DHT22;7667;51.232;17.110;2023-11-21T05:05:02;7.20;99.90
15133;DHT22;7667;51.232;17.110;2023-11-21T05:07:33;7.10;99.90
15133;DHT22;7667;51.232;17.110;2023-11-21T05:10:05;7.10;99.90
15133;DHT22;7667;51.232;17.110;2023-11-21T05:12:40;7.10;99.90
15133;DHT22;7667;51.232;17.110;2023-11-21T05:15:09;7.10;99.90
15133;DHT22;7667;51.232;17.110;2023-11-21T05:17:37;7.10;99.90
15133;DHT22;7667;51.232;17.110;2023-11-21T05:20:13;7.00;99.90
15133;DHT22;7667;51.232;17.110;2023-11-21T05:22:45;7.10;99.90
15133;DHT22;7667;51.232;17.110;2023-11-21T05:25:13;7.10;99.90
15133;DHT22;7667;51.232;17.110;2023-11-21T05:27:41;7.10;99.90
15133;DHT22;7667;51.232;17.110;2023-11-21T05:30:09;7.10;99.90
15133;DHT22;7667;51.232;17.110;2023-11-21T05:32:39;7.00;99.90
15133;DHT22;7667;51.232;17.110;2023-11-21T05:35:10;7.00;99.90
15133;DHT22;7667;51.232;17.110;2023-11-21T05:37:45;7.00;99.90
15133;DHT22;7667;51.232;17.110;2023-11-21T05:40:14;7.00;99.90
15133;DHT22;7667;51.232;17.110;2023-11-21T05:42:42;7.00;99.90
15133;DHT22;7667;51.232;17.110;2023-11-21T05:45:10;7.00;99.90
15133;DHT22;7667;51.232;17.110;2023-11-21T05:47:43;7.00;99.90
15133;DHT22;7667;51.232;17.110;2023-11-21T05:50:15;7.00;99.90
15133;DHT22;7667;51.232;17.110;2023-11-21T05:52:46;7.10;99.90
15133;DHT22;7667;51.232;17.110;2023-11-21T05:55:14;7.00;99.90
15133;DHT22;7667;51.232;17.110;2023-11-21T05:57:43;7.00;99.90
15133;DHT22;7667;51.232;17.110;2023-11-21T06:00:15;7.00;99.90
15133;DHT22;7667;51.232;17.110;2023-11-21T06:02:49;7.10;99.90
15133;DHT22;7667;51.232;17.110;2023-11-21T06:05:19;7.00;99.90
15133;DHT22;7667;51.232;17.110;2023-11-21T06:07:54;7.00;99.90
15133;DHT22;7667;51.232;17.110;2023-11-21T06:10:27;7.00;99.90
15133;DHT22;7667;51.232;17.110;2023-11-21T06:12:56;7.00;99.90
15133;DHT22;7667;51.232;17.110;2023-11-21T06:15:29;7.00;99.90
15133;DHT22;7667;51.232;17.110;2023-11-21T06:17:57;7.00;99.90
15133;DHT22;7667;51.232;17.110;2023-11-21T06:20:25;7.00;99.90
15133;DHT22;7667;51.232;17.110;2023-11-21T06:22:53;7.00;99.90
15133;DHT22;7667;51.232;17.110;2023-11-21T06:25:21;7.00;99.90
15133;DHT22;7667;51.232;17.110;2023-11-21T06:27:51;7.00;99.90
15133;DHT22;7667;51.232;17.110;2023-11-21T06:30:21;7.00;99.90
15133;DHT22;7667;51.232;17.110;2023-11-21T06:32:49;7.00;99.90
15133;DHT22;7667;51.232;17.110;2023-11-21T06:35:18;7.10;99.90
15133;DHT22;7667;51.232;17.110;2023-11-21T06:37:46;7.00;99.90
15133;DHT22;7667;51.232;17.110;2023-11-21T06:40:17;7.00;99.90
15133;DHT22;7667;51.232;17.110;2023-11-21T06:42:47;7.00;99.90
15133;DHT22;7667;51.232;17.110;2023-11-21T06:45:16;7.00;99.90
15133;DHT22;7667;51.232;17.110;2023-11-21T06:47:44;7.00;99.90
15133;DHT22;7667;51.232;17.110;2023-11-21T06:50:12;7.00;99.90
15133;DHT22;7667;51.232;17.110;2023-11-21T06:52:40;7.00;99.90
15133;DHT22;7667;51.232;17.110;2023-11-21T06:55:08;7.10;99.90
15133;DHT22;7667;51.232;17.110;2023-11-21T06:57:36;7.10;99.90
15133;DHT22;7667;51.232;17.110;2023-11-21T07:00:06;7.10;99.90
15133;DHT22;7667;51.232;17.110;2023-11-21T07:02:37;7.00;99.90
15133;DHT22;7667;51.232;17.110;2023-11-21T07:05:06;7.10;99.90
15133;DHT22;7667;51.232;17.110;2023-11-21T07:07:33;7.00;99.90
15133;DHT22;7667;51.232;17.110;2023-11-21T07:10:03;7.10;99.90
15133;DHT22;7667;51.232;17.110;2023-11-21T07:12:33;7.20;99.90
15133;DHT22;7667;51.232;17.110;2023-11-21T07:15:01;7.20;99.90
15133;DHT22;7667;51.232;17.110;2023-11-21T07:17:30;7.20;99.90
15133;DHT22;7667;51.232;17.110;2023-11-21T07:19:58;7.10;99.90
15133;DHT22;7667;51.232;17.110;2023-11-21T07:22:26;7.20;99.90
15133;DHT22;7667;51.232;17.110;2023-11-21T07:24:55;7.20;99.90
15133;DHT22;7667;51.232;17.110;2023-11-21T07:27:26;7.20;99.90
15133;DHT22;7667;51.232;17.110;2023-11-21T07:29:53;7.20;99.90
15133;DHT22;7667;51.232;17.110;2023-11-21T07:32:21;7.20;99.90
15133;DHT22;7667;51.232;17.110;2023-11-21T07:34:48;7.30;99.90
15133;DHT22;7667;51.232;17.110;2023-11-21T07:37:16;7.30;99.90
15133;DHT22;7667;51.232;17.110;2023-11-21T07:39:44;7.30;99.90
15133;DHT22;7667;51.232;17.110;2023-11-21T07:42:11;7.30;99.90
15133;DHT22;7667;51.232;17.110;2023-11-21T07:44:39;7.40;99.90
15133;DHT22;7667;51.232;17.110;2023-11-21T07:47:06;7.40;99.90
15133;DHT22;7667;51.232;17.110;2023-11-21T07:49:34;7.40;99.90
15133;DHT22;7667;51.232;17.110;2023-11-21T07:52:02;7.50;99.90
15133;DHT22;7667;51.232;17.110;2023-11-21T07:54:29;7.50;99.90
15133;DHT22;7667;51.232;17.110;2023-11-21T07:56:57;7.50;99.90
15133;DHT22;7667;51.232;17.110;2023-11-21T07:59:24;7.50;99.90
15133;DHT22;7667;51.232;17.110;2023-11-21T08:01:52;7.60;99.90
15133;DHT22;7667;51.232;17.110;2023-11-21T08:04:19;7.70;99.90
15133;DHT22;7667;51.232;17.110;2023-11-21T08:06:47;7.80;99.90
15133;DHT22;7667;51.232;17.110;2023-11-21T08:09:15;7.80;99.90
15133;DHT22;7667;51.232;17.110;2023-11-21T08:11:44;7.80;99.90
15133;DHT22;7667;51.232;17.110;2023-11-21T08:14:13;7.80;99.90
15133;DHT22;7667;51.232;17.110;2023-11-21T08:16:42;7.80;99.90
15133;DHT22;7667;51.232;17.110;2023-11-21T08:19:10;7.80;99.90
15133;DHT22;7667;51.232;17.110;2023-11-21T08:21:38;7.80;99.90
15133;DHT22;7667;51.232;17.110;2023-11-21T08:24:07;7.90;99.90
15133;DHT22;7667;51.232;17.110;2023-11-21T08:26:38;7.90;99.90
15133;DHT22;7667;51.232;17.110;2023-11-21T08:29:05;8.00;99.90
15133;DHT22;7667;51.232;17.110;2023-11-21T08:31:34;8.10;99.90
15133;DHT22;7667;51.232;17.110;2023-11-21T08:34:02;8.10;99.90
15133;DHT22;7667;51.232;17.110;2023-11-21T08:36:30;8.10;99.90
15133;DHT22;7667;51.232;17.110;2023-11-21T08:38:58;8.10;99.90
15133;DHT22;7667;51.232;17.110;2023-11-21T08:41:26;8.10;99.90
15133;DHT22;7667;51.232;17.110;2023-11-21T08:43:55;8.10;99.90
15133;DHT22;7667;51.232;17.110;2023-11-21T08:46:23;8.20;99.90
15133;DHT22;7667;51.232;17.110;2023-11-21T08:48:53;8.20;99.90
15133;DHT22;7667;51.232;17.110;2023-11-21T08:51:21;8.40;99.90
15133;DHT22;7667;51.232;17.110;2023-11-21T08:53:48;8.40;99.90
15133;DHT22;7667;51.232;17.110;2023-11-21T08:56:16;8.40;99.90
15133;DHT22;7667;51.232;17.110;2023-11-21T08:58:43;8.50;99.90
15133;DHT22;7667;51.232;17.110;2023-11-21T09:01:11;8.50;99.90
15133;DHT22;7667;51.232;17.110;2023-11-21T09:03:39;8.50;99.90
15133;DHT22;7667;51.232;17.110;2023-11-21T09:06:07;8.40;99.90
15133;DHT22;7667;51.232;17.110;2023-11-21T09:08:37;8.50;99.90
15133;DHT22;7667;51.232;17.110;2023-11-21T09:11:05;8.50;99.90
15133;DHT22;7667;51.232;17.110;2023-11-21T09:13:33;8.50;99.90
15133;DHT22;7667;51.232;17.110;2023-11-21T09:16:01;8.20;99.90
15133;DHT22;7667;51.232;17.110;2023-11-21T09:18:29;8.10;99.90
15133;DHT22;7667;51.232;17.110;2023-11-21T09:20:58;7.90;99.90
15133;DHT22;7667;51.232;17.110;2023-11-21T09:23:25;7.90;99.90
15133;DHT22;7667;51.232;17.110;2023-11-21T09:25:53;7.80;99.90
15133;DHT22;7667;51.232;17.110;2023-11-21T09:28:24;7.70;99.90
15133;DHT22;7667;51.232;17.110;2023-11-21T09:30:52;7.60;99.90
15133;DHT22;7667;51.232;17.110;2023-11-21T09:33:20;7.60;99.90
15133;DHT22;7667;51.232;17.110;2023-11-21T09:35:49;7.50;99.90
15133;DHT22;7667;51.232;17.110;2023-11-21T09:38:18;7.50;99.90
15133;DHT22;7667;51.232;17.110;2023-11-21T09:40:46;7.50;99.90
15133;DHT22;7667;51.232;17.110;2023-11-21T09:43:17;7.50;99.90
15133;DHT22;7667;51.232;17.110;2023-11-21T09:45:47;7.40;99.90
15133;DHT22;7667;51.232;17.110;2023-11-21T09:48:17;7.40;99.90
15133;DHT22;7667;51.232;17.110;2023-11-21T09:50:47;7.40;99.90
15133;DHT22;7667;51.232;17.110;2023-11-21T09:53:20;7.30;99.90
15133;DHT22;7667;51.232;17.110;2023-11-21T09:55:53;7.30;99.90
15133;DHT22;7667;51.232;17.110;2023-11-21T09:58:21;7.30;99.90
15133;DHT22;7667;51.232;17.110;2023-11-21T10:00:55;7.20;99.90
15133;DHT22;7667;51.232;17.110;2023-11-21T10:03:24;7.10;99.90
15133;DHT22;7667;51.232;17.110;2023-11-21T10:05:53;7.00;99.90
15133;DHT22;7667;51.232;17.110;2023-11-21T10:08:27;7.00;99.90
15133;DHT22;7667;51.232;17.110;2023-11-21T10:11:14;7.00;99.90
15133;DHT22;7667;51.232;17.110;2023-11-21T10:13:44;6.90;99.90
15133;DHT22;7667;51.232;17.110;2023-11-21T10:16:15;6.80;99.90
15133;DHT22;7667;51.232;17.110;2023-11-21T10:18:43;6.70;99.90
15133;DHT22;7667;51.232;17.110;2023-11-21T10:21:13;6.70;99.90
15133;DHT22;7667;51.232;17.110;2023-11-21T10:23:41;6.70;99.90
15133;DHT22;7667;51.232;17.110;2023-11-21T10:26:12;6.60;99.90
15133;DHT22;7667;51.232;17.110;2023-11-21T10:29:02;6.50;99.90
15133;DHT22;7667;51.232;17.110;2023-11-21T10:31:33;6.50;99.90
15133;DHT22;7667;51.232;17.110;2023-11-21T10:34:20;6.50;99.90
15133;DHT22;7667;51.232;17.110;2023-11-21T10:36:48;6.30;99.90
15133;DHT22;7667;51.232;17.110;2023-11-21T10:39:20;6.30;99.90
15133;DHT22;7667;51.232;17.110;2023-11-21T10:41:51;6.30;99.90
15133;DHT22;7667;51.232;17.110;2023-11-21T10:44:19;6.20;99.90
15133;DHT22;7667;51.232;17.110;2023-11-21T10:46:53;6.10;99.90
15133;DHT22;7667;51.232;17.110;2023-11-21T10:49:25;6.10;99.90
15133;DHT22;7667;51.232;17.110;2023-11-21T10:51:55;6.10;99.90
15133;DHT22;7667;51.232;17.110;2023-11-21T10:54:24;6.10;99.90
15133;DHT22;7667;51.232;17.110;2023-11-21T10:57:00;6.00;99.90
15133;DHT22;7667;51.232;17.110;2023-11-21T10:59:30;6.00;99.90
15133;DHT22;7667;51.232;17.110;2023-11-21T11:02:02;6.00;99.90
15133;DHT22;7667;51.232;17.110;2023-11-21T11:04:36;5.90;99.90
15133;DHT22;7667;51.232;17.110;2023-11-21T11:07:08;5.70;99.90
15133;DHT22;7667;51.232;17.110;2023-11-21T11:09:39;5.60;99.90
15133;DHT22;7667;51.232;17.110;2023-11-21T11:12:07;5.70;99.90
15133;DHT22;7667;51.232;17.110;2023-11-21T11:14:40;5.70;99.90
15133;DHT22;7667;51.232;17.110;2023-11-21T11:17:09;5.60;99.90
15133;DHT22;7667;51.232;17.110;2023-11-21T11:19:38;5.50;99.90
15133;DHT22;7667;51.232;17.110;2023-11-21T11:28:32;5.20;99.90
15133;DHT22;7667;51.232;17.110;2023-11-21T11:34:29;5.00;99.90
15133;DHT22;7667;51.232;17.110;2023-11-21T11:37:06;4.90;99.90
15133;DHT22;7667;51.232;17.110;2023-11-21T11:39:43;4.80;99.90
15133;DHT22;7667;51.232;17.110;2023-11-21T11:42:15;4.70;99.90
15133;DHT22;7667;51.232;17.110;2023-11-21T11:49:58;4.70;99.90
15133;DHT22;7667;51.232;17.110;2023-11-21T11:52:36;4.60;99.90
15133;DHT22;7667;51.232;17.110;2023-11-21T11:55:07;4.60;99.90
15133;DHT22;7667;51.232;17.110;2023-11-21T11:57:40;4.60;99.90
15133;DHT22;7667;51.232;17.110;2023-11-21T12:02:59;4.60;99.90
15133;DHT22;7667;51.232;17.110;2023-11-21T12:05:34;4.40;99.90
15133;DHT22;7667;51.232;17.110;2023-11-21T12:08:07;4.30;99.90
15133;DHT22;7667;51.232;17.110;2023-11-21T12:10:36;4.20;99.90
15133;DHT22;7667;51.232;17.110;2023-11-21T12:13:08;4.10;99.90
15133;DHT22;7667;51.232;17.110;2023-11-21T12:15:38;4.00;99.90
15133;DHT22;7667;51.232;17.110;2023-11-21T12:18:08;3.90;99.90
15133;DHT22;7667;51.232;17.110;2023-11-21T12:20:35;3.90;99.90
15133;DHT22;7667;51.232;17.110;2023-11-21T12:23:07;4.00;99.90
15133;DHT22;7667;51.232;17.110;2023-11-21T12:25:37;4.00;99.90
15133;DHT22;7667;51.232;17.110;2023-11-21T12:28:09;4.00;99.90
15133;DHT22;7667;51.232;17.110;2023-11-21T12:30:36;4.00;99.90
15133;DHT22;7667;51.232;17.110;2023-11-21T12:33:06;3.90;99.90
15133;DHT22;7667;51.232;17.110;2023-11-21T12:35:36;3.80;99.90
15133;DHT22;7667;51.232;17.110;2023-11-21T12:38:05;3.80;99.90
15133;DHT22;7667;51.232;17.110;2023-11-21T12:40:33;3.60;99.90
15133;DHT22;7667;51.232;17.110;2023-11-21T12:43:01;3.60;99.90
15133;DHT22;7667;51.232;17.110;2023-11-21T12:45:32;3.50;99.90
15133;DHT22;7667;51.232;17.110;2023-11-21T12:48:05;3.40;99.90
15133;DHT22;7667;51.232;17.110;2023-11-21T12:50:38;3.40;99.90
15133;DHT22;7667;51.232;17.110;2023-11-21T12:53:11;3.40;99.90
15133;DHT22;7667;51.232;17.110;2023-11-21T12:55:45;3.40;99.90
15133;DHT22;7667;51.232;17.110;2023-11-21T12:58:17;3.40;99.90
15133;DHT22;7667;51.232;17.110;2023-11-21T13:00:48;3.40;99.90
15133;DHT22;7667;51.232;17.110;2023-11-21T13:03:17;3.40;99.90
15133;DHT22;7667;51.232;17.110;2023-11-21T13:05:48;3.30;99.90
15133;DHT22;7667;51.232;17.110;2023-11-21T13:08:23;3.30;99.90
15133;DHT22;7667;51.232;17.110;2023-11-21T13:10:54;3.10;99.90
15133;DHT22;7667;51.232;17.110;2023-11-21T13:13:26;3.00;99.90
15133;DHT22;7667;51.232;17.110;2023-11-21T13:16:00;3.10;99.90
15133;DHT22;7667;51.232;17.110;2023-11-21T13:18:29;3.10;99.90
15133;DHT22;7667;51.232;17.110;2023-11-21T13:21:00;3.10;99.90
15133;DHT22;7667;51.232;17.110;2023-11-21T13:23:49;3.10;99.90
15133;DHT22;7667;51.232;17.110;2023-11-21T13:26:19;3.00;99.90
15133;DHT22;7667;51.232;17.110;2023-11-21T13:28:49;2.90;99.90
15133;DHT22;7667;51.232;17.110;2023-11-21T13:31:17;2.90;99.90
15133;DHT22;7667;51.232;17.110;2023-11-21T13:33:50;2.80;99.90
15133;DHT22;7667;51.232;17.110;2023-11-21T13:36:31;2.80;99.90
15133;DHT22;7667;51.232;17.110;2023-11-21T13:39:03;2.70;99.90
15133;DHT22;7667;51.232;17.110;2023-11-21T13:41:43;2.70;99.90
15133;DHT22;7667;51.232;17.110;2023-11-21T13:44:10;2.70;99.90
15133;DHT22;7667;51.232;17.110;2023-11-21T13:46:54;2.60;99.90
15133;DHT22;7667;51.232;17.110;2023-11-21T13:49:24;2.60;99.90
15133;DHT22;7667;51.232;17.110;2023-11-21T13:51:53;2.60;99.90
15133;DHT22;7667;51.232;17.110;2023-11-21T13:54:22;2.60;99.90
15133;DHT22;7667;51.232;17.110;2023-11-21T13:56:52;2.60;99.90
15133;DHT22;7667;51.232;17.110;2023-11-21T13:59:20;2.50;99.90
15133;DHT22;7667;51.232;17.110;2023-11-21T14:01:50;2.40;99.90
15133;DHT22;7667;51.232;17.110;2023-11-21T14:04:26;2.40;99.90
15133;DHT22;7667;51.232;17.110;2023-11-21T14:06:57;2.30;99.90
15133;DHT22;7667;51.232;17.110;2023-11-21T14:09:28;2.30;99.90
15133;DHT22;7667;51.232;17.110;2023-11-21T14:12:11;2.30;99.90
15133;DHT22;7667;51.232;17.110;2023-11-21T14:14:41;2.20;99.90
15133;DHT22;7667;51.232;17.110;2023-11-21T14:17:09;2.20;99.90
15133;DHT22;7667;51.232;17.110;2023-11-21T14:19:37;2.10;99.90
15133;DHT22;7667;51.232;17.110;2023-11-21T14:22:11;2.10;99.90
15133;DHT22;7667;51.232;17.110;2023-11-21T14:24:39;2.00;99.90
15133;DHT22;7667;51.232;17.110;2023-11-21T14:27:14;1.90;99.90
15133;DHT22;7667;51.232;17.110;2023-11-21T14:29:44;2.00;99.90
15133;DHT22;7667;51.232;17.110;2023-11-21T14:32:12;2.00;99.90
15133;DHT22;7667;51.232;17.110;2023-11-21T14:34:42;2.00;99.90
15133;DHT22;7667;51.232;17.110;2023-11-21T14:37:13;1.90;99.90
15133;DHT22;7667;51.232;17.110;2023-11-21T14:39:41;2.00;99.90
15133;DHT22;7667;51.232;17.110;2023-11-21T14:42:12;2.00;99.90
15133;DHT22;7667;51.232;17.110;2023-11-21T14:44:42;1.90;99.90
15133;DHT22;7667;51.232;17.110;2023-11-21T14:47:11;1.80;99.90
15133;DHT22;7667;51.232;17.110;2023-11-21T14:49:43;1.80;99.90
15133;DHT22;7667;51.232;17.110;2023-11-21T14:52:24;1.80;99.90
15133;DHT22;7667;51.232;17.110;2023-11-21T14:55:11;1.70;99.90
15133;DHT22;7667;51.232;17.110;2023-11-21T14:57:58;1.70;99.90
15133;DHT22;7667;51.232;17.110;2023-11-21T15:00:30;1.70;99.90
15133;DHT22;7667;51.232;17.110;2023-11-21T15:03:01;1.70;99.90
15133;DHT22;7667;51.232;17.110;2023-11-21T15:05:31;1.70;99.90
15133;DHT22;7667;51.232;17.110;2023-11-21T15:07:58;1.70;99.90
15133;DHT22;7667;51.232;17.110;2023-11-21T15:10:41;1.70;99.90
15133;DHT22;7667;51.232;17.110;2023-11-21T15:13:20;1.70;99.90
15133;DHT22;7667;51.232;17.110;2023-11-21T15:15:50;1.50;99.90
15133;DHT22;7667;51.232;17.110;2023-11-21T15:18:21;1.50;99.90
15133;DHT22;7667;51.232;17.110;2023-11-21T15:20:49;1.50;99.90
15133;DHT22;7667;51.232;17.110;2023-11-21T15:23:17;1.50;99.90
15133;DHT22;7667;51.232;17.110;2023-11-21T15:25:46;1.50;99.90
15133;DHT22;7667;51.232;17.110;2023-11-21T15:28:14;1.50;99.90
15133;DHT22;7667;51.232;17.110;2023-11-21T15:30:41;1.40;99.90
15133;DHT22;7667;51.232;17.110;2023-11-21T15:33:09;1.50;99.90
15133;DHT22;7667;51.232;17.110;2023-11-21T15:35:37;1.40;99.90
15133;DHT22;7667;51.232;17.110;2023-11-21T15:38:07;1.50;99.90
15133;DHT22;7667;51.232;17.110;2023-11-21T15:40:35;1.40;99.90
15133;DHT22;7667;51.232;17.110;2023-11-21T15:43:03;1.40;99.90
15133;DHT22;7667;51.232;17.110;2023-11-21T15:45:30;1.40;99.90
15133;DHT22;7667;51.232;17.110;2023-11-21T15:47:58;1.40;99.90
15133;DHT22;7667;51.232;17.110;2023-11-21T15:50:27;1.30;99.90
15133;DHT22;7667;51.232;17.110;2023-11-21T15:52:58;1.30;99.90
15133;DHT22;7667;51.232;17.110;2023-11-21T15:55:25;1.20;99.90
15133;DHT22;7667;51.232;17.110;2023-11-21T15:57:54;1.20;99.90
15133;DHT22;7667;51.232;17.110;2023-11-21T16:00:21;1.20;99.90
15133;DHT22;7667;51.232;17.110;2023-11-21T16:02:51;1.20;99.90
15133;DHT22;7667;51.232;17.110;2023-11-21T16:05:22;1.20;99.90
15133;DHT22;7667;51.232;17.110;2023-11-21T16:07:53;1.20;99.90
15133;DHT22;7667;51.232;17.110;2023-11-21T16:10:23;1.20;99.90
15133;DHT22;7667;51.232;17.110;2023-11-21T16:12:51;1.10;99.90
15133;DHT22;7667;51.232;17.110;2023-11-21T16:15:18;1.10;99.90
15133;DHT22;7667;51.232;17.110;2023-11-21T16:17:46;1.10;99.90